Time;durP1;ratioP1;P1;durP2;ratioP2;P2;SDS_P1;SDS_P2;PMS_P1;PMS_P2;Temp;Humidity;BMP_temperature;BMP_pressure;BME280_temperature;BME280_humidity;BME280_pressure;Samples;Min_cycle;Max_cycle;Signal;HPM_P1;HPM_P2
2021/11/10 00:00:58;;;;;;;14.30;5.20;;;;;;;2.12;62.12;102700.69;126325;1099;104219;-80
2021/11/10 00:03:29;;;;;;;13.47;5.50;;;;;;;2.10;61.86;102704.80;126354;1099;104171;-80
2021/11/10 00:05:59;;;;;;;15.00;5.70;;;;;;;2.09;61.83;102717.59;126379;1099;104278;-80
2021/11/10 00:08:30;;;;;;;13.43;5.40;;;;;;;2.08;61.90;102726.11;126392;1099;104262;-81
2021/11/10 00:11:03;;;;;;;12.80;5.03;;;;;;;2.03;62.01;102733.39;126333;1099;105472;-80
2021/11/10 00:13:33;;;;;;;15.43;5.20;;;;;;;1.97;62.22;102733.64;125434;1099;104184;-81
2021/11/10 00:16:05;;;;;;;14.53;5.13;;;;;;;1.96;62.24;102742.19;126381;1099;104242;-81
2021/11/10 00:18:35;;;;;;;12.33;5.27;;;;;;;1.96;61.87;102741.25;126309;1098;104252;-80
2021/11/10 00:21:06;;;;;;;15.70;5.87;;;;;;;1.95;62.07;102734.26;126336;1099;102099;-80
2021/11/10 00:23:37;;;;;;;15.97;5.80;;;;;;;1.93;62.17;102740.92;126313;1099;104229;-79
2021/11/10 00:26:08;;;;;;;12.43;5.33;;;;;;;1.88;62.24;102744.70;126361;1099;104206;-80
2021/11/10 00:28:39;;;;;;;14.40;5.83;;;;;;;1.86;62.31;102746.22;126286;1099;104178;-80
2021/11/10 00:31:10;;;;;;;15.47;5.27;;;;;;;1.83;62.02;102751.08;126277;1099;104255;-80
2021/11/10 00:33:40;;;;;;;15.43;5.77;;;;;;;1.82;62.28;102754.41;126354;1099;104149;-80
2021/11/10 00:36:12;;;;;;;14.23;5.37;;;;;;;1.79;61.96;102758.52;126345;1097;104146;-80
2021/11/10 00:38:43;;;;;;;15.07;5.70;;;;;;;1.82;62.00;102763.08;126398;1099;104197;-80
2021/11/10 00:41:14;;;;;;;17.13;5.83;;;;;;;1.78;62.13;102756.66;126275;1099;104267;-80
2021/11/10 00:43:46;;;;;;;15.03;5.40;;;;;;;1.75;62.18;102758.92;126270;1099;104245;-80
2021/11/10 00:46:17;;;;;;;14.67;5.63;;;;;;;1.72;62.47;102766.36;126356;1099;104230;-80
2021/11/10 00:48:49;;;;;;;13.27;5.77;;;;;;;1.70;62.10;102773.05;126302;1099;104296;-80
2021/11/10 00:51:21;;;;;;;15.20;5.37;;;;;;;1.68;62.22;102769.36;126292;1099;104201;-80
2021/11/10 00:53:52;;;;;;;16.27;5.70;;;;;;;1.64;62.45;102762.04;126351;1099;117878;-80
2021/11/10 00:56:23;;;;;;;14.27;5.77;;;;;;;1.62;62.28;102763.52;126260;1099;104342;-80
2021/11/10 00:58:53;;;;;;;14.50;5.53;;;;;;;1.57;62.06;102767.30;126348;1099;104156;-79
2021/11/10 01:01:24;;;;;;;15.47;5.80;;;;;;;1.53;62.91;102776.41;126322;1099;104339;-80
2021/11/10 01:03:56;;;;;;;14.20;5.77;;;;;;;1.49;62.31;102758.70;126250;1099;104149;-79
2021/11/10 01:06:28;;;;;;;16.07;5.60;;;;;;;1.47;62.50;102760.22;126279;1099;104297;-79
2021/11/10 01:08:59;;;;;;;16.07;5.90;;;;;;;1.43;62.58;102771.91;126287;1099;104249;-79
2021/11/10 01:11:30;;;;;;;15.43;5.40;;;;;;;1.40;62.40;102770.64;126348;1099;104248;-79
2021/11/10 01:14:01;;;;;;;14.87;5.33;;;;;;;1.38;62.32;102772.15;126267;1099;104278;-80
2021/11/10 01:16:31;;;;;;;12.90;5.70;;;;;;;1.35;62.73;102780.48;126312;1099;104156;-80
2021/11/10 01:19:03;;;;;;;15.07;5.40;;;;;;;1.36;62.51;102784.92;126349;1099;102985;-79
2021/11/10 01:21:34;;;;;;;16.07;5.60;;;;;;;1.33;62.24;102781.99;126288;1098;104252;-80
2021/11/10 01:24:06;;;;;;;15.07;5.13;;;;;;;1.28;62.62;102785.75;126303;1098;104322;-80
2021/11/10 01:26:38;;;;;;;14.97;5.33;;;;;;;1.24;62.75;102779.30;126284;1099;104197;-80
2021/11/10 01:29:09;;;;;;;13.30;4.97;;;;;;;1.21;62.04;102783.23;126364;1099;104149;-80
2021/11/10 01:31:40;;;;;;;13.97;5.30;;;;;;;1.18;62.28;102788.98;126270;1099;104222;-80
2021/11/10 01:34:11;;;;;;;13.10;4.93;;;;;;;1.14;62.40;102791.05;126220;1099;104152;-79
2021/11/10 01:36:44;;;;;;;;;;;;;;;1.09;62.58;102787.96;126337;1099;104251;-80
2021/11/10 01:39:15;;;;;;;14.07;5.30;;;;;;;1.07;62.30;102800.72;126313;1099;104178;-80
2021/11/10 01:41:48;;;;;;;11.43;5.00;;;;;;;1.04;62.80;102790.08;126317;1099;104214;-80
2021/11/10 01:44:21;;;;;;;10.98;4.92;;;;;;;1.03;62.57;102803.73;126332;1099;104144;-80
2021/11/10 01:46:56;;;;;;;11.57;4.57;;;;;;;0.99;62.83;102795.47;126189;1099;104264;-80
2021/11/10 01:49:28;;;;;;;16.25;5.42;;;;;;;0.96;62.58;102801.20;126374;1099;104233;-80
2021/11/10 01:52:00;;;;;;;12.93;5.00;;;;;;;0.98;62.80;102804.91;126311;1099;104669;-80
2021/11/10 01:54:33;;;;;;;14.20;5.07;;;;;;;0.97;62.35;102805.64;126293;1098;104208;-79
2021/11/10 01:57:07;;;;;;;15.72;5.22;;;;;;;0.94;62.65;102812.15;126316;1099;104178;-79
2021/11/10 01:59:41;;;;;;;13.43;5.50;;;;;;;0.88;62.72;102813.28;126191;1099;104142;-78
2021/11/10 02:02:20;;;;;;;10.97;4.50;;;;;;;0.85;62.65;102809.45;126332;1098;104376;-79
2021/11/10 02:04:52;;;;;;;12.00;5.07;;;;;;;0.81;62.86;102809.84;126162;1099;104248;-79
2021/11/10 02:07:23;;;;;;;12.43;5.37;;;;;;;0.77;62.87;102812.84;126331;1099;104149;-80
2021/11/10 02:09:55;;;;;;;13.07;5.60;;;;;;;0.75;63.13;102814.31;126297;1099;104739;-78
2021/11/10 02:12:27;;;;;;;12.40;5.13;;;;;;;0.69;63.12;102809.40;126302;1099;105136;-80
2021/11/10 02:14:59;;;;;;;15.30;5.47;;;;;;;0.65;62.78;102809.79;126316;1099;104226;-80
2021/11/10 02:17:30;;;;;;;14.73;5.13;;;;;;;0.62;62.64;102807.77;126361;1099;104245;-80
2021/11/10 02:20:03;;;;;;;11.93;5.10;;;;;;;0.58;63.25;102813.36;126391;1099;104158;-80
2021/11/10 02:22:38;;;;;;;13.77;5.70;;;;;;;0.56;62.85;102812.24;126383;1099;104319;-80
2021/11/10 02:25:12;;;;;;;12.30;5.47;;;;;;;0.58;63.01;102809.83;126320;1099;104252;-80
2021/11/10 02:27:44;;;;;;;11.77;5.00;;;;;;;0.58;62.99;102810.77;126346;1099;104160;-80
2021/11/10 02:30:18;;;;;;;11.77;5.43;;;;;;;0.56;62.74;102813.92;126355;1099;104277;-80
2021/11/10 02:32:48;;;;;;;;;;;;;;;0.54;62.93;102814.66;126359;1099;102780;-80
2021/11/10 02:35:21;;;;;;;11.27;5.07;;;;;;;0.54;63.15;102818.91;126261;1099;104264;-80
2021/11/10 02:37:55;;;;;;;13.40;5.07;;;;;;;0.53;63.06;102817.06;126322;1098;104149;-80
2021/11/10 02:40:27;;;;;;;15.88;5.20;;;;;;;0.53;63.18;102812.84;126345;1099;104184;-80
2021/11/10 02:43:00;;;;;;;15.37;5.23;;;;;;;0.52;63.26;102816.16;126317;1099;104213;-80
2021/11/10 02:45:31;;;;;;;11.37;5.37;;;;;;;0.52;63.53;102820.42;126249;1099;104156;-79
2021/11/10 02:48:02;;;;;;;12.07;5.40;;;;;;;0.52;63.42;102823.91;126296;1099;104264;-79
2021/11/10 02:50:33;;;;;;;11.17;4.80;;;;;;;0.52;63.48;102833.34;126263;1098;104137;-79
2021/11/10 02:53:04;;;;;;;11.07;4.93;;;;;;;0.52;63.06;102835.92;126340;1099;104150;-79
2021/11/10 02:55:35;;;;;;;12.07;5.63;;;;;;;0.57;63.27;102844.19;126337;1099;104143;-80
2021/11/10 02:58:06;;;;;;;12.50;4.93;;;;;;;0.57;63.46;102833.86;126263;1099;104197;-80
2021/11/10 03:00:40;;;;;;;14.07;4.80;;;;;;;0.56;63.51;102834.59;126361;1098;104326;-80
2021/11/10 03:03:13;;;;;;;11.40;4.97;;;;;;;0.53;63.85;102823.17;126329;1099;104146;-79
2021/11/10 03:05:49;;;;;;;11.27;4.53;;;;;;;0.57;63.63;102823.52;126293;1099;104182;-80
2021/11/10 03:08:23;;;;;;;11.80;4.97;;;;;;;0.57;63.53;102819.27;126287;1099;104589;-79
2021/11/10 03:11:00;;;;;;;13.80;5.03;;;;;;;0.60;63.42;102823.87;126384;1099;104229;-80
2021/11/10 03:13:32;;;;;;;14.13;5.67;;;;;;;0.60;63.48;102834.20;126348;1099;104297;-79
2021/11/10 03:16:02;;;;;;;13.67;4.93;;;;;;;0.60;63.58;102824.78;126244;1099;104278;-79
2021/11/10 03:18:34;;;;;;;14.77;5.40;;;;;;;0.59;64.16;102817.76;126294;1098;104604;-80
2021/11/10 03:21:05;;;;;;;13.70;5.70;;;;;;;0.56;63.35;102816.50;126302;1099;104207;-80
2021/11/10 03:23:36;;;;;;;15.17;5.47;;;;;;;0.49;63.32;102814.91;126367;1099;104175;-80
2021/11/10 03:26:07;;;;;;;13.63;4.93;;;;;;;0.45;63.83;102804.95;126301;1099;104143;-79
2021/11/10 03:28:38;;;;;;;13.65;5.30;;;;;;;0.39;63.46;102810.37;126274;1099;104477;-80
2021/11/10 03:31:10;;;;;;;14.40;5.80;;;;;;;0.34;63.55;102809.84;126278;1099;104270;-80
2021/11/10 03:33:43;;;;;;;14.50;5.40;;;;;;;0.33;64.31;102818.33;126288;1099;104228;-80
2021/11/10 03:36:15;;;;;;;10.77;4.60;;;;;;;0.29;63.50;102826.45;126358;1099;104146;-80
2021/11/10 03:38:47;;;;;;;16.20;5.20;;;;;;;0.26;63.25;102826.11;126338;1099;104152;-80
2021/11/10 03:41:20;;;;;;;10.07;4.80;;;;;;;0.21;64.06;102821.18;126259;1099;104181;-80
2021/11/10 03:43:52;;;;;;;14.30;5.50;;;;;;;0.20;64.16;102816.75;126303;1099;104200;-79
2021/11/10 03:46:25;;;;;;;15.50;5.90;;;;;;;0.16;63.87;102826.72;126266;1099;104172;-79
2021/11/10 03:48:57;;;;;;;13.80;5.70;;;;;;;0.15;63.89;102818.80;126287;1099;104159;-80
2021/11/10 03:51:28;;;;;;;13.67;5.43;;;;;;;0.12;63.93;102828.78;126300;1099;104281;-80
2021/11/10 03:54:04;;;;;;;16.47;5.53;;;;;;;0.08;64.34;102830.09;126354;1098;105301;-80
2021/11/10 03:59:27;;;;;;;15.00;5.70;;;;;;;0.01;64.55;102821.47;126252;1099;104169;-78
2021/11/10 04:02:02;;;;;;;13.80;5.53;;;;;;;-0.03;64.02;102828.86;126338;1099;105335;-78
2021/11/10 04:04:34;;;;;;;14.57;5.70;;;;;;;-0.04;64.01;102828.69;126265;1099;104226;-78
2021/11/10 04:07:06;;;;;;;13.73;5.20;;;;;;;-0.06;64.39;102832.77;126234;1099;104162;-79
2021/11/10 04:09:37;;;;;;;13.97;5.17;;;;;;;-0.10;64.52;102828.88;126322;1097;104258;-79
2021/11/10 04:12:09;;;;;;;14.43;5.27;;;;;;;-0.11;63.73;102836.45;126280;1099;104143;-80
2021/11/10 04:14:49;;;;;;;14.60;5.28;;;;;;;-0.12;63.79;102834.63;126292;1098;104175;-80
2021/11/10 04:17:20;;;;;;;13.17;5.60;;;;;;;-0.13;63.97;102828.52;126166;1099;104142;-80
2021/11/10 04:19:51;;;;;;;15.10;5.33;;;;;;;-0.10;64.31;102828.88;126281;1099;104185;-79
2021/11/10 04:22:29;;;;;;;13.18;5.28;;;;;;;-0.10;64.45;102827.97;126189;1099;104325;-80
2021/11/10 04:25:00;;;;;;;18.40;5.80;;;;;;;-0.10;64.45;102831.46;126236;1099;104229;-80
2021/11/10 04:27:30;;;;;;;16.23;6.70;;;;;;;-0.11;64.39;102842.55;126201;1099;104184;-80
2021/11/10 04:30:02;;;;;;;18.87;6.40;;;;;;;-0.10;64.67;102839.20;126221;1099;104313;-80
2021/11/10 04:32:34;;;;;;;20.83;6.37;;;;;;;-0.11;64.78;102832.23;126200;1099;104146;-80
2021/11/10 04:35:07;;;;;;;14.63;6.23;;;;;;;-0.11;64.15;102834.81;126178;1099;104599;-80
2021/11/10 04:37:39;;;;;;;20.77;7.30;;;;;;;-0.11;64.62;102839.97;125462;1099;104280;-80
2021/11/10 04:40:13;;;;;;;15.60;6.23;;;;;;;-0.09;64.32;102834.98;126245;1099;104348;-79
2021/11/10 04:42:45;;;;;;;21.03;7.63;;;;;;;-0.13;65.06;102846.59;126259;1099;104204;-79
2021/11/10 04:45:29;;;;;;;17.93;6.90;;;;;;;-0.15;64.28;102840.34;126166;1099;104408;-79
2021/11/10 04:48:00;;;;;;;20.47;8.27;;;;;;;-0.15;64.87;102847.18;126177;1099;104229;-80
2021/11/10 04:50:31;;;;;;;23.20;7.87;;;;;;;-0.15;64.60;102849.76;126179;1099;104688;-79
2021/11/10 04:53:03;;;;;;;27.23;8.30;;;;;;;-0.16;64.19;102859.14;126228;1099;104310;-79
2021/11/10 04:55:34;;;;;;;23.83;9.17;;;;;;;-0.15;64.70;102854.92;126323;1099;104283;-79
2021/11/10 04:58:05;;;;;;;27.13;8.40;;;;;;;-0.21;65.35;102858.60;126204;1098;105549;-79
2021/11/10 05:00:36;;;;;;;20.37;7.17;;;;;;;-0.26;65.07;102870.06;126343;1099;104274;-80
2021/11/10 05:03:08;;;;;;;22.60;8.40;;;;;;;-0.31;65.40;102867.67;126233;1099;104162;-79
2021/11/10 05:05:39;;;;;;;21.70;7.40;;;;;;;-0.35;65.50;102875.81;126266;1099;104204;-80
2021/11/10 05:08:10;;;;;;;25.23;7.00;;;;;;;-0.39;65.27;102871.92;126351;1099;104152;-79
2021/11/10 05:10:41;;;;;;;18.53;7.33;;;;;;;-0.43;64.86;102870.66;126236;1099;104245;-80
2021/11/10 05:13:12;;;;;;;23.17;8.27;;;;;;;-0.41;65.56;102878.58;126414;1099;104678;-80
2021/11/10 05:15:46;;;;;;;23.97;8.53;;;;;;;-0.39;64.89;102879.66;126382;1099;104178;-80
2021/11/10 05:18:20;;;;;;;26.97;8.40;;;;;;;-0.30;65.41;102890.16;126306;1099;104254;-80
2021/11/10 05:20:51;;;;;;;21.00;8.10;;;;;;;-0.22;65.20;102884.23;126266;1099;104156;-80
2021/11/10 05:23:22;;;;;;;24.60;8.03;;;;;;;-0.16;65.43;102890.11;126312;1099;102365;-80
2021/11/10 05:25:53;;;;;;;19.73;7.17;;;;;;;-0.14;65.07;102891.23;126353;1099;104171;-80
2021/11/10 05:28:23;;;;;;;20.53;7.43;;;;;;;-0.15;65.83;102896.22;126251;1099;104220;-80
2021/11/10 05:30:54;;;;;;;19.57;6.67;;;;;;;-0.21;66.16;102898.98;126365;1099;104146;-80
2021/11/10 05:33:25;;;;;;;19.73;7.33;;;;;;;-0.23;64.94;102909.13;126271;1099;104249;-80
2021/11/10 05:35:55;;;;;;;16.55;6.90;;;;;;;-0.23;65.43;102913.38;126241;1099;104179;-80
2021/11/10 05:38:26;;;;;;;18.77;7.00;;;;;;;-0.22;65.30;102908.40;126158;1099;104252;-79
2021/11/10 05:40:57;;;;;;;21.50;7.63;;;;;;;-0.18;65.96;102907.08;126116;1099;104193;-81
2021/11/10 05:43:28;;;;;;;25.20;7.47;;;;;;;-0.16;65.95;102920.17;126248;1099;102087;-80
2021/11/10 05:45:59;;;;;;;19.93;7.20;;;;;;;-0.15;65.53;102925.52;126171;1099;104608;-80
2021/11/10 05:48:30;;;;;;;18.30;6.40;;;;;;;-0.15;66.66;102930.67;126129;1099;104149;-80
2021/11/10 05:51:06;;;;;;;20.00;7.93;;;;;;;-0.15;66.14;102933.25;126159;1099;104246;-79
2021/11/10 05:53:43;;;;;;;23.97;7.47;;;;;;;-0.15;66.16;102938.41;126111;1099;104673;-80
2021/11/10 05:56:20;;;;;;;17.17;7.03;;;;;;;-0.11;65.46;102930.30;126187;1099;104146;-80
2021/11/10 05:58:57;;;;;;;28.87;8.53;;;;;;;-0.06;65.94;102934.34;126214;1099;104259;-80
2021/11/10 06:01:28;;;;;;;20.03;7.73;;;;;;;0.01;66.34;102919.56;126066;1099;104156;-80
2021/11/10 06:03:59;;;;;;;20.07;8.00;;;;;;;0.09;66.78;102916.20;126217;1099;104146;-80
2021/11/10 06:06:31;;;;;;;18.90;7.10;;;;;;;0.18;66.05;102925.02;126099;1099;104200;-79
2021/11/10 06:09:01;;;;;;;20.27;7.73;;;;;;;0.25;65.43;102931.81;126149;1099;104185;-80
2021/11/10 06:11:32;;;;;;;18.80;7.80;;;;;;;0.34;66.30;102931.23;126319;1099;104243;-80
2021/11/10 06:14:04;;;;;;;19.80;7.23;;;;;;;0.49;66.00;102941.49;126220;1099;104201;-79
2021/11/10 06:16:36;;;;;;;17.57;6.90;;;;;;;0.58;66.13;102950.30;126125;1099;104207;-78
2021/11/10 06:19:11;;;;;;;23.10;7.83;;;;;;;0.63;66.42;102945.66;126162;1099;104605;-79
2021/11/10 06:21:46;;;;;;;16.77;6.93;;;;;;;0.61;66.36;102950.66;126006;1099;104232;-79
2021/11/10 06:24:20;;;;;;;20.13;7.57;;;;;;;0.64;65.96;102951.01;125440;1099;104216;-78
2021/11/10 06:26:50;;;;;;;;;;;;;;;0.70;66.19;102950.77;126079;1099;104172;-79
2021/11/10 06:29:23;;;;;;;20.43;7.20;;;;;;;0.78;66.27;102947.42;125941;1099;104179;-80
2021/11/10 06:31:55;;;;;;;17.77;7.00;;;;;;;0.88;65.87;102942.53;126185;1099;104188;-78
2021/11/10 06:34:26;;;;;;;17.47;6.47;;;;;;;0.96;66.37;102945.08;126160;1098;104159;-79
2021/11/10 06:36:58;;;;;;;20.10;7.43;;;;;;;1.05;66.62;102952.20;126115;1099;104269;-79
2021/11/10 06:39:31;;;;;;;19.87;6.83;;;;;;;1.11;66.44;102953.63;126119;1099;104752;-79
2021/11/10 06:42:03;;;;;;;18.30;6.90;;;;;;;1.17;66.43;102944.92;126110;1099;104245;-79
2021/11/10 06:44:35;;;;;;;20.00;7.23;;;;;;;1.30;66.33;102944.63;126053;1099;104208;-80
2021/11/10 06:47:16;;;;;;;16.90;7.07;;;;;;;1.42;66.17;102948.59;126122;1099;104261;-79
2021/11/10 06:49:48;;;;;;;19.40;7.10;;;;;;;1.50;66.27;102948.53;126072;1098;104153;-80
2021/11/10 06:52:23;;;;;;;19.40;7.30;;;;;;;1.52;66.19;102950.52;126146;1099;104229;-79
2021/11/10 06:54:54;;;;;;;22.00;8.30;;;;;;;1.52;65.76;102957.38;126051;1099;104201;-79
2021/11/10 06:57:27;;;;;;;20.10;7.27;;;;;;;1.51;65.69;102960.70;126142;1099;104169;-78
2021/11/10 06:59:58;;;;;;;19.37;7.33;;;;;;;1.51;66.62;102953.88;126145;1099;104233;-78
2021/11/10 07:02:29;;;;;;;18.47;7.33;;;;;;;1.57;65.90;102954.56;126071;1099;104150;-77
2021/11/10 07:05:01;;;;;;;15.13;6.83;;;;;;;1.60;66.11;102943.61;125280;1099;104336;-79
2021/11/10 07:07:36;;;;;;;21.70;8.13;;;;;;;1.65;65.84;102946.71;126229;1099;104299;-79
2021/11/10 07:10:09;;;;;;;21.33;8.63;;;;;;;1.73;65.79;102952.00;126098;1099;104299;-78
2021/11/10 07:12:43;;;;;;;22.93;8.33;;;;;;;1.78;65.92;102950.83;126129;1099;104258;-78
2021/11/10 07:15:16;;;;;;;19.05;7.87;;;;;;;1.80;65.60;102957.08;126129;1099;104140;-78
2021/11/10 07:17:49;;;;;;;25.43;8.40;;;;;;;1.78;65.61;102948.23;126157;1099;104619;-80
2021/11/10 07:20:29;;;;;;;26.27;8.50;;;;;;;1.77;65.92;102951.56;126006;1099;104220;-81
2021/11/10 07:23:05;;;;;;;20.80;9.60;;;;;;;1.78;65.97;102948.23;126101;1099;104141;-81
2021/11/10 07:25:36;;;;;;;21.45;7.80;;;;;;;1.89;65.50;102943.33;125112;1102;104500;-80
2021/11/10 07:28:09;;;;;;;21.83;8.13;;;;;;;1.94;65.27;102944.75;125129;1102;104446;-81
2021/11/10 07:30:40;;;;;;;18.60;6.97;;;;;;;2.07;65.69;102947.00;125197;1099;104262;-79
2021/11/10 07:33:14;;;;;;;19.53;7.53;;;;;;;2.21;65.82;102946.81;125219;1099;104200;-80
2021/11/10 07:35:47;;;;;;;16.93;7.17;;;;;;;2.32;65.63;102950.58;125182;1099;104181;-80
2021/11/10 07:38:25;;;;;;;22.30;8.37;;;;;;;2.34;65.71;102944.81;125252;1102;104214;-82
2021/11/10 07:41:01;;;;;;;16.63;6.90;;;;;;;2.42;65.39;102945.64;125138;1099;104195;-80
2021/11/10 07:43:40;;;;;;;18.57;7.30;;;;;;;2.61;65.55;102934.66;125384;1099;104188;-81
2021/11/10 07:46:16;;;;;;;20.67;7.50;;;;;;;2.69;65.42;102928.61;125183;1099;102007;-81
2021/11/10 07:48:50;;;;;;;18.40;7.60;;;;;;;2.72;65.21;102917.66;126067;1099;104159;-83
2021/11/10 07:51:24;;;;;;;23.10;8.40;;;;;;;2.80;65.29;102924.56;125907;1099;104239;-81
2021/11/10 07:53:57;;;;;;;21.60;7.70;;;;;;;2.91;65.01;102918.82;125974;1099;104173;-80
2021/11/10 07:56:28;;;;;;;22.97;8.07;;;;;;;3.04;65.83;102921.05;126144;1099;104184;-79
2021/11/10 07:59:04;;;;;;;18.03;7.90;;;;;;;3.21;65.44;102915.94;126111;1099;104169;-81
2021/11/10 08:01:36;;;;;;;17.17;7.37;;;;;;;3.36;64.83;102920.88;126075;1099;104172;-79
2021/11/10 08:04:18;;;;;;;17.00;6.70;;;;;;;3.49;65.71;102918.80;125965;1099;104230;-79
2021/11/10 08:07:04;;;;;;;21.80;6.33;;;;;;;3.65;64.87;102907.39;126194;1099;104220;-82
2021/11/10 08:09:37;;;;;;;14.33;6.33;;;;;;;3.72;63.54;102894.25;126164;1099;104281;-79
2021/11/10 08:12:13;;;;;;;15.77;6.47;;;;;;;3.66;64.20;102891.03;126077;1099;104255;-79
2021/11/10 08:14:50;;;;;;;16.47;6.27;;;;;;;3.68;64.16;102889.53;126103;1099;104172;-79
2021/11/10 08:17:22;;;;;;;13.97;5.93;;;;;;;3.80;64.46;102877.76;126297;1099;104120;-82
2021/11/10 08:19:56;;;;;;;13.57;6.70;;;;;;;3.95;64.04;102878.40;126277;1099;104139;-81
2021/11/10 08:22:30;;;;;;;13.27;6.43;;;;;;;3.91;63.52;102876.24;126139;1099;104169;-80
2021/11/10 08:25:11;;;;;;;17.20;6.47;;;;;;;3.85;62.81;102881.77;126216;1099;104174;-79
2021/11/10 08:28:15;;;;;;;19.43;6.93;;;;;;;4.00;64.38;102884.96;126162;1098;104143;-80
2021/11/10 08:30:53;;;;;;;15.53;6.50;;;;;;;4.05;62.93;102888.96;126225;1099;105587;-82
2021/11/10 08:34:06;;;;;;;;;;;;;;;;;;;;;
2021/11/10 08:36:50;;;;;;;17.17;6.63;;;;;;;4.17;62.95;102883.15;126291;1099;104150;-79
2021/11/10 08:43:11;;;;;;;19.53;6.93;;;;;;;4.23;63.39;102887.27;125504;1099;104149;-81
2021/11/10 08:45:53;;;;;;;16.33;6.53;;;;;;;4.31;62.90;102885.42;125367;1099;104284;-82
2021/11/10 08:48:28;;;;;;;16.20;6.80;;;;;;;4.38;62.72;102893.08;126249;1099;104307;-80
2021/11/10 08:51:00;;;;;;;16.73;6.87;;;;;;;4.44;62.49;102898.89;126088;1098;103402;-82
2021/11/10 08:53:56;;;;;;;21.10;7.80;;;;;;;4.39;60.66;102902.69;126221;1098;104150;-83
2021/11/10 08:56:30;;;;;;;15.83;6.20;;;;;;;4.45;61.48;102903.30;125501;1099;104241;-82
2021/11/10 08:59:06;;;;;;;15.18;6.17;;;;;;;4.53;61.23;102898.86;126179;1099;104175;-82
2021/11/10 09:01:42;;;;;;;13.37;5.97;;;;;;;4.50;59.78;102880.36;126241;1099;104291;-84
2021/11/10 09:04:26;;;;;;;13.93;5.80;;;;;;;4.51;60.82;102882.20;126158;1099;104152;-82
2021/11/10 09:06:59;;;;;;;15.47;6.20;;;;;;;4.53;60.13;102891.05;126273;1099;104452;-83
2021/11/10 09:09:34;;;;;;;15.83;5.60;;;;;;;4.59;60.46;102882.95;126287;1099;104321;-83
2021/11/10 09:12:14;;;;;;;12.70;5.60;;;;;;;4.68;58.61;102876.95;126217;1099;104181;-80
2021/11/10 09:14:52;;;;;;;14.70;6.07;;;;;;;4.78;60.90;102877.86;126211;1099;104322;-79
2021/11/10 09:17:34;;;;;;;15.85;5.00;;;;;;;4.96;61.12;102877.03;125432;1099;104331;-79
2021/11/10 09:20:09;;;;;;;13.00;5.10;;;;;;;5.00;59.05;102865.22;126337;1099;104153;-79
2021/11/10 09:25:40;;;;;;;12.50;5.67;;;;;;;4.92;56.77;102850.58;126131;1099;104204;-81
2021/11/10 09:28:23;;;;;;;17.37;5.90;;;;;;;4.89;58.73;102848.58;126264;1099;104207;-83
2021/11/10 09:30:58;;;;;;;15.00;6.17;;;;;;;4.92;58.92;102848.88;126147;1099;104194;-84
2021/11/10 09:33:34;;;;;;;11.73;5.30;;;;;;;5.00;58.65;102850.55;126047;1099;104306;-82
2021/11/10 09:36:06;;;;;;;16.15;5.90;;;;;;;5.02;58.58;102843.80;126064;1099;104176;-80
2021/11/10 09:38:43;;;;;;;16.37;6.30;;;;;;;4.98;57.88;102846.86;126190;1099;102845;-79
2021/11/10 09:41:17;;;;;;;12.40;5.13;;;;;;;5.11;58.60;102832.42;126196;1099;104293;-80
2021/11/10 09:43:47;;;;;;;13.73;5.17;;;;;;;5.29;58.62;102833.27;126049;1099;104145;-80
2021/11/10 09:46:18;;;;;;;12.47;5.40;;;;;;;5.42;58.74;102818.00;126166;1099;104198;-81
2021/11/10 09:48:49;;;;;;;11.77;5.10;;;;;;;5.56;58.43;102822.83;126253;1099;104641;-80
2021/11/10 09:51:22;;;;;;;13.07;5.70;;;;;;;5.61;58.11;102807.63;126232;1099;104124;-79
2021/11/10 09:53:58;;;;;;;11.23;5.03;;;;;;;5.69;57.99;102808.34;126204;1099;104492;-81
2021/11/10 09:56:29;;;;;;;13.90;5.57;;;;;;;5.79;58.56;102804.89;126198;1099;104271;-81
2021/11/10 09:59:07;;;;;;;12.70;5.70;;;;;;;5.80;58.48;102801.48;126307;1099;104152;-79
2021/11/10 10:02:11;;;;;;;12.77;6.03;;;;;;;5.76;56.80;102805.51;126280;1099;104268;-80
2021/11/10 10:04:57;;;;;;;15.93;6.30;;;;;;;5.72;56.94;102796.51;126273;1099;104277;-80
2021/11/10 10:07:31;;;;;;;16.12;6.40;;;;;;;5.79;58.03;102797.98;126339;1099;104156;-80
2021/11/10 10:10:03;;;;;;;15.93;6.10;;;;;;;5.86;57.81;102794.23;126121;1099;104274;-81
2021/11/10 10:12:42;;;;;;;17.33;6.53;;;;;;;5.93;57.51;102794.94;126235;1099;104232;-79
2021/11/10 10:15:17;;;;;;;15.77;6.23;;;;;;;6.00;57.79;102793.86;126074;1099;110763;-81
2021/11/10 10:17:56;;;;;;;17.00;6.53;;;;;;;5.92;56.80;102800.00;125960;1098;104146;-82
2021/11/10 10:20:37;;;;;;;18.13;6.90;;;;;;;5.93;57.31;102794.94;125888;1099;104252;-82
2021/11/10 10:23:13;;;;;;;18.17;6.87;;;;;;;5.96;56.94;102809.05;125954;1099;104210;-82
2021/11/10 10:25:49;;;;;;;16.97;6.67;;;;;;;5.87;57.38;102810.01;126082;1099;104862;-82
2021/11/10 10:28:25;;;;;;;15.80;6.80;;;;;;;5.87;56.45;102803.89;126030;1099;104372;-83
2021/11/10 10:31:02;;;;;;;17.07;7.10;;;;;;;5.87;56.47;102804.80;126040;1099;101831;-81
2021/11/10 10:33:39;;;;;;;15.80;7.13;;;;;;;5.90;56.51;102804.17;126102;1099;104211;-82
2021/11/10 10:36:14;;;;;;;18.00;6.90;;;;;;;5.93;56.54;102794.94;126208;1099;104293;-80
2021/11/10 10:38:48;;;;;;;18.73;6.80;;;;;;;5.92;56.70;102781.77;126325;1099;104156;-79
2021/11/10 10:41:38;;;;;;;15.47;6.43;;;;;;;5.96;56.68;102782.98;126070;1099;104239;-82
2021/11/10 10:44:14;;;;;;;17.87;6.83;;;;;;;6.02;57.13;102788.78;125966;1099;104175;-81
2021/11/10 10:46:57;;;;;;;21.27;7.63;;;;;;;6.07;56.71;102783.19;125875;1099;104290;-81
2021/11/10 10:49:53;;;;;;;18.90;7.20;;;;;;;6.09;56.78;102780.72;125166;1099;104163;-78
2021/11/10 10:52:28;;;;;;;16.77;6.60;;;;;;;6.10;56.83;102788.69;126018;1099;104159;-79
2021/11/10 10:55:05;;;;;;;15.23;6.47;;;;;;;6.13;56.56;102781.94;125242;1099;104201;-82
2021/11/10 10:57:48;;;;;;;16.53;6.67;;;;;;;6.16;55.87;102777.00;126283;1099;104195;-80
2021/11/10 11:00:35;;;;;;;17.65;7.47;;;;;;;6.19;56.10;102777.28;125303;1099;104265;-82
2021/11/10 11:03:30;;;;;;;16.07;7.17;;;;;;;6.26;56.35;102774.42;126224;1099;104153;-82
2021/11/10 11:06:08;;;;;;;18.20;7.20;;;;;;;6.25;56.21;102770.01;125336;1099;104165;-82
2021/11/10 11:08:41;;;;;;;19.23;7.60;;;;;;;6.14;56.39;102766.44;125248;1099;104691;-82
2021/11/10 11:11:38;;;;;;;19.23;7.73;;;;;;;6.09;56.32;102766.02;125239;1099;104313;-80
2021/11/10 11:14:26;;;;;;;21.50;8.50;;;;;;;6.10;56.29;102765.22;125973;1097;104254;-80
2021/11/10 11:17:09;;;;;;;17.93;7.87;;;;;;;6.14;56.28;102768.11;125824;1099;108238;-80
2021/11/10 11:19:58;;;;;;;20.73;8.03;;;;;;;6.11;55.75;102769.67;125324;1100;104351;-80
2021/11/10 11:22:35;;;;;;;17.47;7.60;;;;;;;6.13;56.29;102764.59;126051;1099;104280;-80
2021/11/10 11:25:16;;;;;;;16.53;7.30;;;;;;;6.18;55.79;102760.70;126030;1099;104252;-79
2021/11/10 11:27:59;;;;;;;18.90;7.33;;;;;;;6.20;55.44;102761.77;125866;1099;104220;-80
2021/11/10 11:30:44;;;;;;;16.97;6.93;;;;;;;6.14;55.07;102758.62;125816;1099;104167;-79
2021/11/10 11:33:39;;;;;;;;;;;;;;;;;;;;;
2021/11/10 11:36:42;;;;;;;18.50;7.93;;;;;;;6.11;55.67;102759.25;125884;1099;104153;-81
2021/11/10 11:39:16;;;;;;;16.65;6.80;;;;;;;6.12;55.38;102754.94;125372;1099;104734;-80
2021/11/10 11:41:50;;;;;;;15.37;6.10;;;;;;;6.17;55.15;102750.13;126002;1099;103016;-81
2021/11/10 11:44:28;;;;;;;17.00;6.60;;;;;;;6.19;54.69;102754.72;126029;1099;104197;-81
2021/11/10 11:47:18;;;;;;;18.00;6.67;;;;;;;6.23;54.95;102753.29;126162;1098;104188;-80
2021/11/10 11:49:58;;;;;;;15.10;6.13;;;;;;;6.25;54.84;102752.66;126242;1099;104153;-81
2021/11/10 11:52:42;;;;;;;14.50;6.47;;;;;;;6.26;54.68;102757.11;126087;1097;104124;-78
2021/11/10 11:55:22;;;;;;;14.23;6.10;;;;;;;6.28;54.62;102752.03;125272;1099;104201;-78